Airfield :
LOGIN :

Register | Disclaimer

   EN    FR    IT 

 










Legend :    VFR   Marginal VFR   IFR   Intensive IFR   Very Intensive IFR
Visi :
Ceiling :
>= 8 km
>= 3000ft
5 to 8 km
1000 to 3000 ft
1500m to 5 km
500 to 1000 ft
800 to 1500m
200 to 500 ft
< 800m
< 200 ft
Symbols :   Thunderstorms  Fog  Heavy snow  Heavy precipitations  Wind > 20 kt
SIGMETs :     Misc.  Thunderstorms  Icing  Turbulence  Mountain Waves  Volcanic Ashes






- Airport Elevation : 359 ft
- IATA code : BVA


LFOB - Beauvais

CURRENT METAR :
  • 170700Z AUTO 02004KT 8000 OVC035 04/04 Q1010 TEMPO 2000 BR

EXPIRED METARs :
  • 170630Z AUTO 32005KT 7000 OVC033 04/04 Q1010 TEMPO 2000 BR
  • 170600Z AUTO 32001KT 9999 OVC031 04/04 Q1010 TEMPO 2000 BR
  • 170530Z AUTO 00000KT 9000 OVC033 04/04 Q1010 TEMPO 0200 FG VV///
  • 170500Z AUTO 10002KT 7000 OVC033 04/04 Q1010 TEMPO 0200 FG VV///
  • 170430Z AUTO 00000KT 9000 FEW008 OVC033 04/04 Q1009 TEMPO 0200 FG VV///

TAF TAF LFOB
Valid from the 17 at 06:00 until the 18 at 06:00 UTC


170500Z 1706/1806 VRB03KT 8000 BKN030
TEMPO 1706/1709 2000 BR
BECMG 1717/1720 3000 BR
ATIS : +33 3 44 11 49 28



MET'MAP, your aeronautical weather chart ! - Copyright ORBIFLY December 2007 - Disclaimer

ORBIFLY MET'MAP TEAM :

Programming & Development : Alexandra Zaïnal
Concept & Development : Baudouin d'Aumeries
Co-Development & Prog : Marc-Olivier Méhu
Technical & hardware support : Manuel Goepfert

Contact : metmap@orbifly.com




SOURCES & CREDITS :

   NOAA